sensor_id;sensor_type;location;lat;lon;timestamp;pressure;altitude;pressure_sealevel;temperature;humidity
16190;BME280;41754;51.498;7.540;2023-02-19T00:01:40;100398.66;;;16.46;53.06
16190;BME280;41754;51.498;7.540;2023-02-19T00:04:12;100390.56;;;16.04;53.88
16190;BME280;41754;51.498;7.540;2023-02-19T00:06:40;100399.13;;;16.36;53.38
16190;BME280;41754;51.498;7.540;2023-02-19T00:09:09;100398.41;;;16.02;54.26
16190;BME280;41754;51.498;7.540;2023-02-19T00:11:37;100407.13;;;16.62;52.98
16190;BME280;41754;51.498;7.540;2023-02-19T00:14:05;100401.31;;;17.19;52.27
16190;BME280;41754;51.498;7.540;2023-02-19T00:16:37;100401.13;;;17.12;52.17
16190;BME280;41754;51.498;7.540;2023-02-19T00:19:07;100408.53;;;17.08;52.56
16190;BME280;41754;51.498;7.540;2023-02-19T00:21:35;100394.34;;;16.98;52.04
16190;BME280;41754;51.498;7.540;2023-02-19T00:24:05;100405.34;;;15.96;53.81
16190;BME280;41754;51.498;7.540;2023-02-19T00:26:33;100399.31;;;16.92;52.39
16190;BME280;41754;51.498;7.540;2023-02-19T00:29:01;100405.25;;;16.54;52.74
16190;BME280;41754;51.498;7.540;2023-02-19T00:31:30;100407.34;;;16.32;54.15
16190;BME280;41754;51.498;7.540;2023-02-19T00:34:02;100400.97;;;16.81;53.06
16190;BME280;41754;51.498;7.540;2023-02-19T00:36:31;100403.19;;;17.15;50.90
16190;BME280;41754;51.498;7.540;2023-02-19T00:39:01;100395.88;;;16.46;52.80
16190;BME280;41754;51.498;7.540;2023-02-19T00:41:29;100393.59;;;16.24;53.42
16190;BME280;41754;51.498;7.540;2023-02-19T00:43:59;100400.44;;;17.03;50.79
16190;BME280;41754;51.498;7.540;2023-02-19T00:46:28;100385.63;;;16.99;51.47
16190;BME280;41754;51.498;7.540;2023-02-19T00:48:57;100385.22;;;17.53;50.60
16190;BME280;41754;51.498;7.540;2023-02-19T00:51:28;100382.22;;;16.78;51.14
16190;BME280;41754;51.498;7.540;2023-02-19T00:53:56;100374.06;;;18.98;47.38
16190;BME280;41754;51.498;7.540;2023-02-19T00:56:25;100368.75;;;17.92;49.52
16190;BME280;41754;51.498;7.540;2023-02-19T00:58:53;100379.69;;;17.13;50.08
16190;BME280;41754;51.498;7.540;2023-02-19T01:01:21;100386.88;;;16.37;51.63
16190;BME280;41754;51.498;7.540;2023-02-19T01:03:50;100377.47;;;16.42;52.33
16190;BME280;41754;51.498;7.540;2023-02-19T01:06:19;100373.91;;;18.91;47.39
16190;BME280;41754;51.498;7.540;2023-02-19T01:08:48;100367.56;;;18.24;47.91
16190;BME280;41754;51.498;7.540;2023-02-19T01:11:16;100380.97;;;17.03;51.45
16190;BME280;41754;51.498;7.540;2023-02-19T01:13:46;100368.81;;;18.43;48.84
16190;BME280;41754;51.498;7.540;2023-02-19T01:16:15;100377.38;;;17.43;50.07
16190;BME280;41754;51.498;7.540;2023-02-19T01:18:44;100374.78;;;16.82;51.39
16190;BME280;41754;51.498;7.540;2023-02-19T01:21:15;100365.44;;;17.14;51.39
16190;BME280;41754;51.498;7.540;2023-02-19T01:23:45;100367.94;;;17.19;50.60
16190;BME280;41754;51.498;7.540;2023-02-19T01:26:16;100372.28;;;17.33;50.36
16190;BME280;41754;51.498;7.540;2023-02-19T01:28:45;100375.31;;;16.23;53.38
16190;BME280;41754;51.498;7.540;2023-02-19T01:31:16;100372.09;;;17.26;50.87
16190;BME280;41754;51.498;7.540;2023-02-19T01:33:45;100377.44;;;17.18;50.86
16190;BME280;41754;51.498;7.540;2023-02-19T01:36:14;100362.25;;;18.51;48.65
16190;BME280;41754;51.498;7.540;2023-02-19T01:38:42;100362.13;;;18.63;47.38
16190;BME280;41754;51.498;7.540;2023-02-19T01:41:11;100368.53;;;17.69;48.80
16190;BME280;41754;51.498;7.540;2023-02-19T01:43:58;100365.53;;;18.72;46.75
16190;BME280;41754;51.498;7.540;2023-02-19T01:46:26;100358.09;;;18.60;47.26
16190;BME280;41754;51.498;7.540;2023-02-19T01:48:56;100347.25;;;19.52;45.86
16190;BME280;41754;51.498;7.540;2023-02-19T01:51:25;100346.16;;;18.44;46.47
16190;BME280;41754;51.498;7.540;2023-02-19T01:53:58;100364.16;;;17.12;50.04
16190;BME280;41754;51.498;7.540;2023-02-19T01:56:29;100346.38;;;16.60;50.90
16190;BME280;41754;51.498;7.540;2023-02-19T01:59:00;100340.41;;;17.58;50.33
16190;BME280;41754;51.498;7.540;2023-02-19T02:01:28;100348.09;;;16.65;51.59
16190;BME280;41754;51.498;7.540;2023-02-19T02:03:56;100342.88;;;18.58;48.54
16190;BME280;41754;51.498;7.540;2023-02-19T02:06:26;100351.03;;;17.24;50.88
16190;BME280;41754;51.498;7.540;2023-02-19T02:08:56;100349.59;;;16.62;53.71
16190;BME280;41754;51.498;7.540;2023-02-19T02:11:49;100350.00;;;16.89;52.75
16190;BME280;41754;51.498;7.540;2023-02-19T02:14:22;100357.66;;;17.48;50.87
16190;BME280;41754;51.498;7.540;2023-02-19T02:16:55;100350.00;;;17.45;50.58
16190;BME280;41754;51.498;7.540;2023-02-19T02:19:36;100342.97;;;17.63;50.54
16190;BME280;41754;51.498;7.540;2023-02-19T02:22:14;100358.88;;;16.94;51.24
16190;BME280;41754;51.498;7.540;2023-02-19T02:25:10;100360.13;;;17.37;50.56
16190;BME280;41754;51.498;7.540;2023-02-19T02:27:52;100355.06;;;18.18;48.80
16190;BME280;41754;51.498;7.540;2023-02-19T02:30:31;100343.75;;;18.43;47.58
16190;BME280;41754;51.498;7.540;2023-02-19T02:33:08;100347.63;;;18.06;49.22
16190;BME280;41754;51.498;7.540;2023-02-19T02:35:43;100361.06;;;17.57;49.74
16190;BME280;41754;51.498;7.540;2023-02-19T02:38:14;100355.34;;;18.13;48.96
16190;BME280;41754;51.498;7.540;2023-02-19T02:40:43;100358.16;;;18.64;48.00
16190;BME280;41754;51.498;7.540;2023-02-19T02:43:13;100352.22;;;18.15;49.71
16190;BME280;41754;51.498;7.540;2023-02-19T02:45:42;100363.94;;;16.77;51.24
16190;BME280;41754;51.498;7.540;2023-02-19T02:48:32;100364.16;;;19.01;46.20
16190;BME280;41754;51.498;7.540;2023-02-19T02:51:08;100358.69;;;19.66;45.56
16190;BME280;41754;51.498;7.540;2023-02-19T02:53:46;100362.00;;;18.24;48.03
16190;BME280;41754;51.498;7.540;2023-02-19T02:56:33;100357.63;;;19.51;45.86
16190;BME280;41754;51.498;7.540;2023-02-19T02:59:04;100350.81;;;18.56;46.52
16190;BME280;41754;51.498;7.540;2023-02-19T03:01:36;100365.13;;;18.54;47.10
16190;BME280;41754;51.498;7.540;2023-02-19T03:04:29;100366.56;;;18.48;47.01
16190;BME280;41754;51.498;7.540;2023-02-19T03:07:03;100376.41;;;18.26;47.54
16190;BME280;41754;51.498;7.540;2023-02-19T03:09:36;100365.88;;;19.06;45.99
16190;BME280;41754;51.498;7.540;2023-02-19T03:12:10;100378.03;;;16.72;50.22
16190;BME280;41754;51.498;7.540;2023-02-19T03:15:03;100367.53;;;17.05;50.50
16190;BME280;41754;51.498;7.540;2023-02-19T03:17:56;100376.88;;;17.53;49.27
16190;BME280;41754;51.498;7.540;2023-02-19T03:20:45;100381.94;;;16.95;51.21
16190;BME280;41754;51.498;7.540;2023-02-19T03:23:16;100381.41;;;17.17;50.72
16190;BME280;41754;51.498;7.540;2023-02-19T03:25:45;100383.97;;;16.21;53.13
16190;BME280;41754;51.498;7.540;2023-02-19T03:28:41;100371.94;;;16.66;51.40
16190;BME280;41754;51.498;7.540;2023-02-19T03:31:30;100395.19;;;16.37;52.67
16190;BME280;41754;51.498;7.540;2023-02-19T03:34:04;100390.31;;;16.46;52.78
16190;BME280;41754;51.498;7.540;2023-02-19T03:36:39;100390.56;;;16.78;51.77
16190;BME280;41754;51.498;7.540;2023-02-19T03:39:12;100396.09;;;16.04;52.27
16190;BME280;41754;51.498;7.540;2023-02-19T03:41:47;100396.13;;;16.29;51.96
16190;BME280;41754;51.498;7.540;2023-02-19T03:44:24;100391.47;;;16.70;51.69
16190;BME280;41754;51.498;7.540;2023-02-19T03:46:59;100395.53;;;16.84;50.95
16190;BME280;41754;51.498;7.540;2023-02-19T03:49:40;100396.38;;;16.60;51.13
16190;BME280;41754;51.498;7.540;2023-02-19T03:52:17;100410.91;;;16.45;52.24
16190;BME280;41754;51.498;7.540;2023-02-19T03:54:51;100405.34;;;16.08;51.87
16190;BME280;41754;51.498;7.540;2023-02-19T03:57:22;100411.63;;;16.18;52.77
16190;BME280;41754;51.498;7.540;2023-02-19T03:59:55;100417.16;;;16.30;53.06
16190;BME280;41754;51.498;7.540;2023-02-19T04:02:28;100423.28;;;18.24;47.73
16190;BME280;41754;51.498;7.540;2023-02-19T04:05:05;100433.22;;;17.50;47.85
16190;BME280;41754;51.498;7.540;2023-02-19T04:07:41;100424.28;;;18.83;46.08
16190;BME280;41754;51.498;7.540;2023-02-19T04:10:14;100435.16;;;17.62;47.62
16190;BME280;41754;51.498;7.540;2023-02-19T04:12:48;100428.06;;;18.90;45.68
16190;BME280;41754;51.498;7.540;2023-02-19T04:15:21;100438.13;;;18.60;44.94
16190;BME280;41754;51.498;7.540;2023-02-19T04:17:54;100448.19;;;17.33;48.12
16190;BME280;41754;51.498;7.540;2023-02-19T04:20:26;100457.63;;;17.16;48.27
16190;BME280;41754;51.498;7.540;2023-02-19T04:22:56;100452.56;;;18.65;45.62
16190;BME280;41754;51.498;7.540;2023-02-19T04:25:26;100456.06;;;16.91;48.80
16190;BME280;41754;51.498;7.540;2023-02-19T04:27:54;100455.53;;;17.26;48.30
16190;BME280;41754;51.498;7.540;2023-02-19T04:30:22;100460.53;;;16.22;50.57
16190;BME280;41754;51.498;7.540;2023-02-19T04:32:50;100457.44;;;16.36;50.43
16190;BME280;41754;51.498;7.540;2023-02-19T04:35:17;100460.19;;;15.66;51.43
16190;BME280;41754;51.498;7.540;2023-02-19T04:37:47;100474.16;;;16.60;50.15
16190;BME280;41754;51.498;7.540;2023-02-19T04:40:15;100473.63;;;16.46;50.04
16190;BME280;41754;51.498;7.540;2023-02-19T04:42:42;100480.69;;;16.31;49.60
16190;BME280;41754;51.498;7.540;2023-02-19T04:45:10;100478.91;;;15.69;51.75
16190;BME280;41754;51.498;7.540;2023-02-19T04:47:38;100481.81;;;16.18;51.44
16190;BME280;41754;51.498;7.540;2023-02-19T04:50:06;100490.56;;;16.53;51.19
16190;BME280;41754;51.498;7.540;2023-02-19T04:52:34;100492.13;;;16.30;50.20
16190;BME280;41754;51.498;7.540;2023-02-19T04:55:04;100492.56;;;16.89;49.38
16190;BME280;41754;51.498;7.540;2023-02-19T04:57:32;100501.25;;;16.88;49.44
16190;BME280;41754;51.498;7.540;2023-02-19T05:00:00;100498.69;;;16.58;48.89
16190;BME280;41754;51.498;7.540;2023-02-19T05:02:27;100498.34;;;18.05;46.30
16190;BME280;41754;51.498;7.540;2023-02-19T05:04:55;100496.03;;;17.51;46.37
16190;BME280;41754;51.498;7.540;2023-02-19T05:07:23;100501.78;;;17.58;45.79
16190;BME280;41754;51.498;7.540;2023-02-19T05:09:51;100496.81;;;18.51;45.26
16190;BME280;41754;51.498;7.540;2023-02-19T05:12:20;100504.38;;;16.62;49.21
16190;BME280;41754;51.498;7.540;2023-02-19T05:14:48;100508.63;;;16.72;49.79
16190;BME280;41754;51.498;7.540;2023-02-19T05:17:16;100513.94;;;17.13;48.42
16190;BME280;41754;51.498;7.540;2023-02-19T05:19:44;100520.63;;;18.05;47.51
16190;BME280;41754;51.498;7.540;2023-02-19T05:22:11;100532.50;;;16.97;47.79
16190;BME280;41754;51.498;7.540;2023-02-19T05:24:39;100523.44;;;17.24;48.59
16190;BME280;41754;51.498;7.540;2023-02-19T05:27:07;100530.59;;;16.52;49.93
16190;BME280;41754;51.498;7.540;2023-02-19T05:29:36;100535.38;;;16.19;51.05
16190;BME280;41754;51.498;7.540;2023-02-19T05:32:04;100529.00;;;17.24;47.81
16190;BME280;41754;51.498;7.540;2023-02-19T05:34:32;100534.22;;;17.02;49.04
16190;BME280;41754;51.498;7.540;2023-02-19T05:37:00;100538.00;;;17.46;48.40
16190;BME280;41754;51.498;7.540;2023-02-19T05:39:27;100542.94;;;16.76;49.89
16190;BME280;41754;51.498;7.540;2023-02-19T05:41:55;100546.63;;;16.80;49.76
16190;BME280;41754;51.498;7.540;2023-02-19T05:44:23;100552.84;;;17.38;48.49
16190;BME280;41754;51.498;7.540;2023-02-19T05:46:52;100558.66;;;16.96;48.73
16190;BME280;41754;51.498;7.540;2023-02-19T05:49:20;100565.06;;;16.39;50.00
16190;BME280;41754;51.498;7.540;2023-02-19T05:51:49;100558.91;;;17.03;49.16
16190;BME280;41754;51.498;7.540;2023-02-19T05:54:17;100562.00;;;16.20;50.54
16190;BME280;41754;51.498;7.540;2023-02-19T05:56:45;100557.75;;;16.92;48.20
16190;BME280;41754;51.498;7.540;2023-02-19T05:59:15;100559.34;;;16.93;49.01
16190;BME280;41754;51.498;7.540;2023-02-19T06:01:44;100561.78;;;15.92;51.30
16190;BME280;41754;51.498;7.540;2023-02-19T06:04:13;100574.53;;;16.26;50.38
16190;BME280;41754;51.498;7.540;2023-02-19T06:06:42;100567.38;;;16.37;50.33
16190;BME280;41754;51.498;7.540;2023-02-19T06:09:10;100561.22;;;16.77;48.53
16190;BME280;41754;51.498;7.540;2023-02-19T06:11:38;100565.88;;;15.73;50.19
16190;BME280;41754;51.498;7.540;2023-02-19T06:14:06;100576.75;;;16.45;49.53
16190;BME280;41754;51.498;7.540;2023-02-19T06:16:34;100575.50;;;16.54;49.24
16190;BME280;41754;51.498;7.540;2023-02-19T06:19:02;100578.44;;;16.70;49.37
16190;BME280;41754;51.498;7.540;2023-02-19T06:21:31;100582.72;;;16.55;49.42
16190;BME280;41754;51.498;7.540;2023-02-19T06:24:04;100583.91;;;17.28;48.15
16190;BME280;41754;51.498;7.540;2023-02-19T06:26:32;100580.88;;;16.84;48.89
16190;BME280;41754;51.498;7.540;2023-02-19T06:28:59;100586.22;;;17.38;46.98
16190;BME280;41754;51.498;7.540;2023-02-19T06:31:27;100592.78;;;16.27;49.49
16190;BME280;41754;51.498;7.540;2023-02-19T06:33:55;100603.00;;;15.81;49.43
16190;BME280;41754;51.498;7.540;2023-02-19T06:36:23;100606.34;;;16.28;50.06
16190;BME280;41754;51.498;7.540;2023-02-19T06:38:52;100603.97;;;16.51;50.45
16190;BME280;41754;51.498;7.540;2023-02-19T06:41:20;100602.78;;;16.40;50.37
16190;BME280;41754;51.498;7.540;2023-02-19T06:43:48;100606.34;;;16.61;50.29
16190;BME280;41754;51.498;7.540;2023-02-19T06:46:16;100609.84;;;16.83;48.37
16190;BME280;41754;51.498;7.540;2023-02-19T06:48:44;100612.22;;;15.73;51.22
16190;BME280;41754;51.498;7.540;2023-02-19T06:51:13;100610.75;;;16.08;50.24
16190;BME280;41754;51.498;7.540;2023-02-19T06:53:44;100617.25;;;16.79;48.80
16190;BME280;41754;51.498;7.540;2023-02-19T06:56:24;100615.31;;;17.28;47.92
16190;BME280;41754;51.498;7.540;2023-02-19T06:58:54;100612.50;;;18.05;46.39
16190;BME280;41754;51.498;7.540;2023-02-19T07:01:22;100622.97;;;16.49;48.63
16190;BME280;41754;51.498;7.540;2023-02-19T07:03:50;100630.91;;;17.81;47.92
16190;BME280;41754;51.498;7.540;2023-02-19T07:06:18;100641.50;;;17.64;46.55
16190;BME280;41754;51.498;7.540;2023-02-19T07:08:46;100631.94;;;18.29;45.85
16190;BME280;41754;51.498;7.540;2023-02-19T07:11:14;100633.38;;;17.59;46.32
16190;BME280;41754;51.498;7.540;2023-02-19T07:13:44;100642.69;;;16.69;47.61
16190;BME280;41754;51.498;7.540;2023-02-19T07:16:12;100649.31;;;15.89;50.55
16190;BME280;41754;51.498;7.540;2023-02-19T07:18:40;100651.97;;;16.40;50.43
16190;BME280;41754;51.498;7.540;2023-02-19T07:21:11;100667.97;;;16.22;50.98
16190;BME280;41754;51.498;7.540;2023-02-19T07:23:40;100671.59;;;16.34;50.43
16190;BME280;41754;51.498;7.540;2023-02-19T07:26:08;100678.16;;;18.06;46.36
16190;BME280;41754;51.498;7.540;2023-02-19T07:28:37;100685.63;;;17.04;47.85
16190;BME280;41754;51.498;7.540;2023-02-19T07:31:08;100679.97;;;16.68;49.12
16190;BME280;41754;51.498;7.540;2023-02-19T07:33:36;100682.16;;;18.33;45.99
16190;BME280;41754;51.498;7.540;2023-02-19T07:36:06;100690.97;;;17.09;47.26
16190;BME280;41754;51.498;7.540;2023-02-19T07:38:34;100693.91;;;16.80;48.59
16190;BME280;41754;51.498;7.540;2023-02-19T07:41:03;100696.09;;;16.74;48.71
16190;BME280;41754;51.498;7.540;2023-02-19T07:43:33;100705.22;;;16.62;49.88
16190;BME280;41754;51.498;7.540;2023-02-19T07:46:01;100710.50;;;16.88;48.74
16190;BME280;41754;51.498;7.540;2023-02-19T07:48:31;100718.59;;;16.93;48.82
16190;BME280;41754;51.498;7.540;2023-02-19T07:51:00;100725.25;;;16.47;49.27
16190;BME280;41754;51.498;7.540;2023-02-19T07:53:29;100714.97;;;16.81;49.24
16190;BME280;41754;51.498;7.540;2023-02-19T07:55:58;100719.31;;;17.48;47.60
16190;BME280;41754;51.498;7.540;2023-02-19T07:58:27;100714.31;;;16.96;48.77
16190;BME280;41754;51.498;7.540;2023-02-19T08:00:55;100716.91;;;17.01;48.35
16190;BME280;41754;51.498;7.540;2023-02-19T08:03:23;100721.44;;;17.18;48.17
16190;BME280;41754;51.498;7.540;2023-02-19T08:05:51;100728.50;;;16.28;49.39
16190;BME280;41754;51.498;7.540;2023-02-19T08:08:20;100734.19;;;16.74;49.24
16190;BME280;41754;51.498;7.540;2023-02-19T08:10:48;100740.78;;;17.72;48.05
16190;BME280;41754;51.498;7.540;2023-02-19T08:13:33;100748.75;;;17.49;47.56
16190;BME280;41754;51.498;7.540;2023-02-19T08:16:10;100753.38;;;17.45;47.91
16190;BME280;41754;51.498;7.540;2023-02-19T08:18:47;100747.13;;;17.85;47.41
16190;BME280;41754;51.498;7.540;2023-02-19T08:21:17;100750.16;;;16.98;48.70
16190;BME280;41754;51.498;7.540;2023-02-19T08:23:45;100755.50;;;17.15;48.37
16190;BME280;41754;51.498;7.540;2023-02-19T08:26:16;100758.94;;;17.69;47.34
16190;BME280;41754;51.498;7.540;2023-02-19T08:28:44;100764.81;;;16.86;48.66
16190;BME280;41754;51.498;7.540;2023-02-19T08:31:12;100758.16;;;17.69;47.52
16190;BME280;41754;51.498;7.540;2023-02-19T08:33:40;100745.66;;;15.80;51.19
16190;BME280;41754;51.498;7.540;2023-02-19T08:36:10;100758.56;;;16.89;49.14
16190;BME280;41754;51.498;7.540;2023-02-19T08:38:39;100751.63;;;16.95;48.13
16190;BME280;41754;51.498;7.540;2023-02-19T08:41:09;100766.63;;;17.60;48.17
16190;BME280;41754;51.498;7.540;2023-02-19T08:43:38;100760.78;;;18.14;45.80
16190;BME280;41754;51.498;7.540;2023-02-19T08:46:07;100774.91;;;17.36;46.53
16190;BME280;41754;51.498;7.540;2023-02-19T08:48:36;100769.06;;;17.86;46.58
16190;BME280;41754;51.498;7.540;2023-02-19T08:51:07;100766.50;;;18.58;45.35
16190;BME280;41754;51.498;7.540;2023-02-19T08:53:37;100764.75;;;17.76;46.33
16190;BME280;41754;51.498;7.540;2023-02-19T08:56:07;100781.91;;;16.76;48.06
16190;BME280;41754;51.498;7.540;2023-02-19T08:58:36;100779.38;;;16.41;48.86
16190;BME280;41754;51.498;7.540;2023-02-19T09:01:07;100777.50;;;17.08;47.95
16190;BME280;41754;51.498;7.540;2023-02-19T09:03:36;100772.13;;;16.90;47.97
16190;BME280;41754;51.498;7.540;2023-02-19T09:06:04;100783.84;;;17.08;48.29
16190;BME280;41754;51.498;7.540;2023-02-19T09:08:32;100789.00;;;17.18;47.83
16190;BME280;41754;51.498;7.540;2023-02-19T09:11:01;100786.09;;;17.48;48.12
16190;BME280;41754;51.498;7.540;2023-02-19T09:13:31;100786.13;;;16.94;48.56
16190;BME280;41754;51.498;7.540;2023-02-19T09:16:00;100798.19;;;17.31;47.55
16190;BME280;41754;51.498;7.540;2023-02-19T09:18:28;100805.28;;;17.41;47.67
16190;BME280;41754;51.498;7.540;2023-02-19T09:20:58;100808.06;;;17.08;48.59
16190;BME280;41754;51.498;7.540;2023-02-19T09:23:27;100816.09;;;17.21;47.92
16190;BME280;41754;51.498;7.540;2023-02-19T09:25:58;100813.22;;;16.85;48.77
16190;BME280;41754;51.498;7.540;2023-02-19T09:28:26;100824.53;;;16.80;48.25
16190;BME280;41754;51.498;7.540;2023-02-19T09:30:56;100821.91;;;17.16;48.42
16190;BME280;41754;51.498;7.540;2023-02-19T09:33:24;100829.09;;;16.34;49.13
16190;BME280;41754;51.498;7.540;2023-02-19T09:35:51;100836.78;;;17.33;47.17
16190;BME280;41754;51.498;7.540;2023-02-19T09:38:19;100830.63;;;17.72;47.08
16190;BME280;41754;51.498;7.540;2023-02-19T09:40:47;100843.03;;;17.75;46.69
16190;BME280;41754;51.498;7.540;2023-02-19T09:43:18;100840.31;;;17.21;47.76
16190;BME280;41754;51.498;7.540;2023-02-19T09:45:48;100847.50;;;17.43;47.85
16190;BME280;41754;51.498;7.540;2023-02-19T09:48:21;100849.59;;;17.13;48.14
16190;BME280;41754;51.498;7.540;2023-02-19T09:50:48;100842.06;;;17.59;45.88
16190;BME280;41754;51.498;7.540;2023-02-19T09:53:18;100850.16;;;17.18;47.30
16190;BME280;41754;51.498;7.540;2023-02-19T09:55:51;100864.38;;;17.83;46.71
16190;BME280;41754;51.498;7.540;2023-02-19T09:58:24;100861.81;;;16.79;48.70
16190;BME280;41754;51.498;7.540;2023-02-19T10:00:57;100872.81;;;17.29;47.24
16190;BME280;41754;51.498;7.540;2023-02-19T10:03:30;100881.53;;;17.40;46.93
16190;BME280;41754;51.498;7.540;2023-02-19T10:06:00;100880.25;;;17.70;47.10
16190;BME280;41754;51.498;7.540;2023-02-19T10:08:33;100887.22;;;17.76;46.86
16190;BME280;41754;51.498;7.540;2023-02-19T10:11:04;100889.50;;;17.08;47.68
16190;BME280;41754;51.498;7.540;2023-02-19T10:13:35;100895.28;;;17.57;46.97
16190;BME280;41754;51.498;7.540;2023-02-19T10:16:05;100905.00;;;17.84;46.36
16190;BME280;41754;51.498;7.540;2023-02-19T10:18:40;100906.56;;;17.40;46.76
16190;BME280;41754;51.498;7.540;2023-02-19T10:21:13;100908.16;;;18.19;45.92
16190;BME280;41754;51.498;7.540;2023-02-19T10:23:43;100910.94;;;18.19;45.69
16190;BME280;41754;51.498;7.540;2023-02-19T10:26:11;100912.56;;;17.30;45.78
16190;BME280;41754;51.498;7.540;2023-02-19T10:28:39;100921.00;;;17.42;45.18
16190;BME280;41754;51.498;7.540;2023-02-19T10:31:15;100935.50;;;17.27;46.46
16190;BME280;41754;51.498;7.540;2023-02-19T10:33:52;100941.56;;;18.07;45.93
16190;BME280;41754;51.498;7.540;2023-02-19T10:36:25;100950.16;;;17.36;46.08
16190;BME280;41754;51.498;7.540;2023-02-19T10:38:58;100955.44;;;17.29;47.39
16190;BME280;41754;51.498;7.540;2023-02-19T10:41:27;100935.78;;;17.67;45.98
16190;BME280;41754;51.498;7.540;2023-02-19T10:44:06;100937.56;;;18.29;45.56
16190;BME280;41754;51.498;7.540;2023-02-19T10:46:42;100949.31;;;18.47;45.09
16190;BME280;41754;51.498;7.540;2023-02-19T10:49:21;100944.63;;;18.75;44.99
16190;BME280;41754;51.498;7.540;2023-02-19T10:51:51;100939.66;;;17.74;45.89
16190;BME280;41754;51.498;7.540;2023-02-19T10:54:24;100950.47;;;18.46;43.92
16190;BME280;41754;51.498;7.540;2023-02-19T10:56:54;100962.34;;;17.64;45.08
16190;BME280;41754;51.498;7.540;2023-02-19T10:59:24;100973.34;;;17.40;46.00
16190;BME280;41754;51.498;7.540;2023-02-19T11:01:53;100977.75;;;17.62;45.70
16190;BME280;41754;51.498;7.540;2023-02-19T11:04:24;100979.00;;;17.85;44.29
16190;BME280;41754;51.498;7.540;2023-02-19T11:06:52;100975.75;;;17.95;44.98
16190;BME280;41754;51.498;7.540;2023-02-19T11:09:30;100980.88;;;18.51;44.21
16190;BME280;41754;51.498;7.540;2023-02-19T11:12:01;100965.97;;;17.77;45.17
16190;BME280;41754;51.498;7.540;2023-02-19T11:14:31;100978.78;;;17.57;45.36
16190;BME280;41754;51.498;7.540;2023-02-19T11:17:01;100983.22;;;17.70;44.82
16190;BME280;41754;51.498;7.540;2023-02-19T11:19:35;100984.75;;;18.13;44.72
16190;BME280;41754;51.498;7.540;2023-02-19T11:22:18;100989.22;;;18.26;43.94
16190;BME280;41754;51.498;7.540;2023-02-19T11:24:47;100997.69;;;18.66;43.23
16190;BME280;41754;51.498;7.540;2023-02-19T11:27:20;100994.91;;;18.79;42.91
16190;BME280;41754;51.498;7.540;2023-02-19T11:29:49;100987.97;;;18.73;42.41
16190;BME280;41754;51.498;7.540;2023-02-19T11:32:25;100986.75;;;18.25;42.72
16190;BME280;41754;51.498;7.540;2023-02-19T11:35:16;100997.59;;;17.60;43.92
16190;BME280;41754;51.498;7.540;2023-02-19T11:37:53;101005.78;;;17.15;44.49
16190;BME280;41754;51.498;7.540;2023-02-19T11:40:31;100995.06;;;17.26;44.98
16190;BME280;41754;51.498;7.540;2023-02-19T11:45:53;100981.31;;;18.40;42.48
16190;BME280;41754;51.498;7.540;2023-02-19T11:48:43;100987.16;;;18.02;43.31
16190;BME280;41754;51.498;7.540;2023-02-19T11:51:24;100979.59;;;17.37;43.92
16190;BME280;41754;51.498;7.540;2023-02-19T11:54:06;100978.78;;;17.57;44.37
16190;BME280;41754;51.498;7.540;2023-02-19T11:56:39;100980.75;;;17.90;42.79
16190;BME280;41754;51.498;7.540;2023-02-19T11:59:16;100976.44;;;18.25;42.75
16190;BME280;41754;51.498;7.540;2023-02-19T12:05:06;100980.09;;;17.60;43.35
16190;BME280;41754;51.498;7.540;2023-02-19T12:07:56;100980.06;;;17.93;42.92
16190;BME280;41754;51.498;7.540;2023-02-19T12:10:35;100986.16;;;17.32;43.41
16190;BME280;41754;51.498;7.540;2023-02-19T12:13:16;100983.47;;;17.44;43.56
16190;BME280;41754;51.498;7.540;2023-02-19T12:16:03;100988.13;;;17.32;44.21
16190;BME280;41754;51.498;7.540;2023-02-19T12:18:46;100992.34;;;17.17;43.51
16190;BME280;41754;51.498;7.540;2023-02-19T12:21:37;101001.84;;;17.58;43.19
16190;BME280;41754;51.498;7.540;2023-02-19T12:24:33;101002.19;;;17.56;43.39
16190;BME280;41754;51.498;7.540;2023-02-19T12:27:18;101002.47;;;17.96;42.33
16190;BME280;41754;51.498;7.540;2023-02-19T12:30:00;101019.16;;;16.92;44.26
16190;BME280;41754;51.498;7.540;2023-02-19T12:32:43;101012.44;;;17.22;43.49
16190;BME280;41754;51.498;7.540;2023-02-19T12:38:20;101026.13;;;17.28;43.54
16190;BME280;41754;51.498;7.540;2023-02-19T12:41:06;101016.78;;;17.53;43.18
16190;BME280;41754;51.498;7.540;2023-02-19T12:43:40;101015.97;;;17.73;43.18
16190;BME280;41754;51.498;7.540;2023-02-19T12:46:14;101029.25;;;16.97;44.76
16190;BME280;41754;51.498;7.540;2023-02-19T12:48:50;101023.56;;;17.43;43.49
16190;BME280;41754;51.498;7.540;2023-02-19T12:51:24;101016.56;;;17.79;43.29
16190;BME280;41754;51.498;7.540;2023-02-19T12:53:57;101021.97;;;17.34;43.03
16190;BME280;41754;51.498;7.540;2023-02-19T12:56:31;101034.28;;;17.74;43.20
16190;BME280;41754;51.498;7.540;2023-02-19T12:59:03;101027.34;;;17.80;42.84
16190;BME280;41754;51.498;7.540;2023-02-19T13:01:38;101035.41;;;17.32;43.74
16190;BME280;41754;51.498;7.540;2023-02-19T13:04:17;101034.72;;;17.64;42.90
16190;BME280;41754;51.498;7.540;2023-02-19T13:06:52;101035.31;;;18.03;42.07
16190;BME280;41754;51.498;7.540;2023-02-19T13:09:23;101038.47;;;17.80;42.94
16190;BME280;41754;51.498;7.540;2023-02-19T13:12:00;101048.94;;;17.84;42.93
16190;BME280;41754;51.498;7.540;2023-02-19T13:14:32;101040.91;;;17.40;43.78
16190;BME280;41754;51.498;7.540;2023-02-19T13:17:05;101034.13;;;17.71;43.10
16190;BME280;41754;51.498;7.540;2023-02-19T13:19:36;101033.88;;;16.63;44.38
16190;BME280;41754;51.498;7.540;2023-02-19T13:22:15;101025.03;;;16.99;43.79
16190;BME280;41754;51.498;7.540;2023-02-19T13:25:05;101042.22;;;16.54;45.07